createdAt,value
2022-08-19T00:01:53.246Z,19.43
2022-08-19T00:04:23.554Z,23.43
2022-08-19T00:06:50.381Z,21.87
2022-08-19T00:09:19.775Z,25.83
2022-08-19T00:11:47.007Z,26.57
2022-08-19T00:14:16.535Z,24.50
2022-08-19T00:16:45.167Z,33.70
2022-08-19T00:19:12.081Z,31.03
2022-08-19T00:21:40.565Z,32.60
2022-08-19T00:24:09.793Z,31.00
2022-08-19T00:26:38.533Z,31.40
2022-08-19T00:29:06.682Z,32.47
2022-08-19T00:31:33.647Z,30.10
2022-08-19T00:34:00.663Z,37.93
2022-08-19T00:36:27.506Z,36.67
2022-08-19T00:38:54.324Z,28.93
2022-08-19T00:41:22.777Z,39.47
2022-08-19T00:44:02.587Z,36.77
2022-08-19T00:46:29.742Z,37.93
2022-08-19T00:48:58.485Z,30.87
2022-08-19T00:51:28.181Z,33.10
2022-08-19T00:53:57.938Z,37.93
2022-08-19T00:56:27.220Z,36.27
2022-08-19T00:58:57.461Z,32.43
2022-08-19T01:01:24.364Z,43.93
2022-08-19T01:03:56.788Z,33.70
2022-08-19T01:06:25.597Z,37.03
2022-08-19T01:08:52.403Z,44.70
2022-08-19T01:11:19.086Z,33.53
2022-08-19T01:13:49.703Z,32.27
2022-08-19T01:16:18.749Z,41.70
2022-08-19T01:18:45.410Z,44.13
2022-08-19T01:21:23.249Z,35.13
2022-08-19T01:23:50.053Z,33.27
2022-08-19T01:26:21.315Z,39.60
2022-08-19T01:28:50.595Z,33.83
2022-08-19T01:31:27.146Z,37.30
2022-08-19T01:33:57.688Z,32.93
2022-08-19T01:36:29.570Z,29.63
2022-08-19T01:38:56.949Z,31.87
2022-08-19T01:41:24.734Z,33.83
2022-08-19T01:44:03.216Z,35.10
2022-08-19T01:46:42.630Z,38.80
2022-08-19T01:49:09.560Z,40.03
2022-08-19T01:51:39.617Z,35.13
2022-08-19T01:54:08.575Z,35.77
2022-08-19T01:56:35.279Z,36.60
2022-08-19T01:59:09.281Z,36.17
2022-08-19T02:01:36.205Z,31.70
2022-08-19T02:04:03.609Z,38.03
2022-08-19T02:06:30.686Z,32.23
2022-08-19T02:08:58.370Z,44.27
2022-08-19T02:11:32.377Z,44.30
2022-08-19T02:14:02.621Z,45.13
2022-08-19T02:16:29.722Z,40.10
2022-08-19T02:18:56.367Z,40.00
2022-08-19T02:21:24.558Z,39.50
2022-08-19T02:23:51.929Z,46.33
2022-08-19T02:26:19.705Z,44.33
2022-08-19T02:28:47.101Z,50.87
2022-08-19T02:31:18.037Z,40.57
2022-08-19T02:33:45.509Z,42.60
2022-08-19T02:36:13.999Z,41.60
2022-08-19T02:38:47.061Z,43.03
2022-08-19T02:41:26.781Z,49.17
2022-08-19T02:44:26.393Z,41.10
2022-08-19T02:46:41.680Z,61.17
2022-08-19T02:49:08.872Z,55.17
2022-08-19T02:51:39.488Z,52.73
2022-08-19T02:54:07.600Z,50.57
2022-08-19T02:56:39.928Z,52.70
2022-08-19T02:59:11.457Z,48.43
2022-08-19T03:01:40.747Z,59.23
2022-08-19T03:04:09.709Z,54.27
2022-08-19T03:06:42.175Z,60.77
2022-08-19T03:09:09.151Z,58.43
2022-08-19T03:11:36.274Z,63.17
2022-08-19T03:14:04.555Z,71.63
2022-08-19T03:16:33.885Z,66.73
2022-08-19T03:19:01.762Z,66.00
2022-08-19T03:21:31.498Z,52.83
2022-08-19T03:24:01.312Z,52.13
2022-08-19T03:26:28.880Z,50.10
2022-08-19T03:28:58.573Z,57.67
2022-08-19T03:31:43.584Z,58.07
2022-08-19T03:34:15.256Z,58.13
2022-08-19T03:36:42.276Z,71.60
2022-08-19T03:39:10.487Z,57.27
2022-08-19T03:41:45.422Z,49.37
2022-08-19T03:44:17.045Z,56.60
2022-08-19T03:46:45.412Z,51.93
2022-08-19T03:49:14.134Z,51.27
2022-08-19T03:51:43.359Z,57.27
2022-08-19T03:54:13.810Z,49.30
2022-08-19T03:56:42.255Z,44.00
2022-08-19T03:59:14.522Z,45.80
2022-08-19T04:01:41.950Z,44.97
2022-08-19T04:04:09.281Z,45.03
2022-08-19T04:06:39.495Z,51.30
2022-08-19T04:09:09.302Z,41.93
2022-08-19T04:11:43.014Z,43.30
2022-08-19T04:14:17.434Z,41.10
2022-08-19T04:16:45.647Z,50.73
2022-08-19T04:19:13.588Z,46.87
2022-08-19T04:21:40.951Z,54.00
2022-08-19T04:24:08.160Z,54.13
2022-08-19T04:26:37.603Z,56.73
2022-08-19T04:29:13.517Z,47.33
2022-08-19T04:31:40.992Z,47.23
2022-08-19T04:34:11.826Z,51.10
2022-08-19T04:36:41.480Z,60.47
2022-08-19T04:39:12.687Z,49.47
2022-08-19T04:41:57.974Z,73.47
2022-08-19T04:44:25.023Z,50.57
2022-08-19T04:46:52.486Z,62.93
2022-08-19T04:49:23.144Z,63.67
2022-08-19T04:51:51.469Z,66.70
2022-08-19T04:54:38.902Z,60.20
2022-08-19T04:57:07.932Z,74.20
2022-08-19T04:59:35.219Z,72.80
2022-08-19T05:02:02.089Z,66.43
2022-08-19T05:04:31.892Z,68.23
2022-08-19T05:07:00.894Z,73.50
2022-08-19T05:09:28.585Z,67.40
2022-08-19T05:12:15.357Z,76.30
2022-08-19T05:14:42.252Z,78.70
2022-08-19T05:17:26.541Z,77.93
2022-08-19T05:20:12.638Z,79.77
2022-08-19T05:22:40.179Z,74.30
2022-08-19T05:25:13.354Z,104.63
2022-08-19T05:27:41.498Z,69.93
2022-08-19T05:30:08.712Z,83.73
2022-08-19T05:32:35.677Z,84.93
2022-08-19T05:35:02.418Z,83.53
2022-08-19T05:37:29.188Z,86.40
2022-08-19T05:39:56.240Z,81.87
2022-08-19T05:42:24.013Z,63.63
2022-08-19T05:44:52.025Z,69.33
2022-08-19T05:47:20.687Z,73.33
2022-08-19T05:49:48.055Z,66.53
2022-08-19T05:52:19.506Z,67.07
2022-08-19T05:54:52.354Z,62.27
2022-08-19T05:57:19.916Z,59.80
2022-08-19T05:59:49.201Z,58.40
2022-08-19T06:02:16.071Z,51.03
2022-08-19T06:04:43.811Z,58.63
2022-08-19T06:07:12.518Z,75.00
2022-08-19T06:09:40.489Z,66.43
2022-08-19T06:12:07.719Z,66.83
2022-08-19T06:14:40.326Z,57.93
2022-08-19T06:17:09.250Z,62.17
2022-08-19T06:19:40.946Z,61.87
2022-08-19T06:22:09.115Z,57.93
2022-08-19T06:24:36.347Z,59.60
2022-08-19T06:27:04.218Z,60.17
2022-08-19T06:29:31.134Z,61.27
2022-08-19T06:32:00.323Z,57.10
2022-08-19T06:34:29.185Z,72.87
2022-08-19T06:36:57.958Z,58.10
2022-08-19T06:39:27.605Z,66.70
2022-08-19T06:41:59.008Z,60.70
2022-08-19T06:44:29.079Z,63.53
2022-08-19T06:46:57.296Z,59.00
2022-08-19T06:49:24.783Z,57.90
2022-08-19T06:51:52.047Z,64.77
2022-08-19T06:54:20.428Z,72.07
2022-08-19T06:56:47.757Z,70.10
2022-08-19T06:59:20.663Z,71.50
2022-08-19T07:01:53.481Z,86.40
2022-08-19T07:04:24.086Z,77.80
2022-08-19T07:06:57.236Z,84.30
2022-08-19T07:09:27.371Z,85.07
2022-08-19T07:11:55.572Z,66.73
2022-08-19T07:14:27.197Z,62.07
2022-08-19T07:16:57.005Z,67.73
2022-08-19T07:19:27.949Z,68.10
2022-08-19T07:21:55.588Z,60.20
2022-08-19T07:24:27.010Z,59.33
2022-08-19T07:27:02.356Z,67.73
2022-08-19T07:29:30.872Z,69.53
2022-08-19T07:32:00.083Z,57.93
2022-08-19T07:34:30.232Z,41.97
2022-08-19T07:36:57.115Z,42.27
2022-08-19T07:39:27.606Z,41.10
2022-08-19T07:41:55.528Z,46.57
2022-08-19T07:44:23.863Z,39.17
2022-08-19T07:46:53.955Z,41.50
2022-08-19T07:49:21.330Z,34.37
2022-08-19T07:51:50.609Z,37.37
2022-08-19T07:54:18.156Z,52.60
2022-08-19T07:56:44.877Z,43.53
2022-08-19T07:59:12.626Z,40.40
2022-08-19T08:01:41.472Z,41.90
2022-08-19T08:04:27.408Z,25.60
2022-08-19T08:07:13.218Z,28.80
2022-08-19T08:09:42.079Z,25.73
2022-08-19T08:12:32.903Z,25.90
2022-08-19T08:15:08.292Z,22.37
2022-08-19T08:17:49.283Z,25.53
2022-08-19T08:20:19.781Z,31.73
2022-08-19T08:23:06.448Z,19.27
2022-08-19T08:25:34.356Z,28.03
2022-08-19T08:28:01.319Z,30.80
2022-08-19T08:30:32.556Z,24.27
2022-08-19T08:33:00.524Z,28.67
2022-08-19T08:35:29.478Z,24.27
2022-08-19T08:37:57.336Z,28.20
2022-08-19T08:40:50.746Z,19.30
2022-08-19T08:43:32.560Z,21.50
2022-08-19T08:46:32.435Z,19.23
2022-08-19T08:49:25.545Z,29.20
2022-08-19T08:52:10.849Z,27.20
2022-08-19T08:54:55.647Z,26.40
2022-08-19T08:57:37.139Z,24.10
2022-08-19T09:00:15.177Z,24.40
2022-08-19T09:02:43.722Z,36.40
2022-08-19T09:05:16.587Z,32.57
2022-08-19T09:08:16.238Z,34.57
2022-08-19T09:10:55.181Z,39.43
2022-08-19T09:13:40.103Z,37.97
2022-08-19T09:16:10.309Z,38.47
2022-08-19T09:18:49.772Z,37.60
2022-08-19T09:21:17.258Z,34.97
2022-08-19T09:23:44.497Z,45.50
2022-08-19T09:26:23.078Z,35.63
2022-08-19T09:28:53.275Z,41.50
2022-08-19T09:31:24.527Z,37.43
2022-08-19T09:33:52.437Z,35.07
2022-08-19T09:36:31.209Z,43.20
2022-08-19T09:39:01.938Z,35.23
2022-08-19T09:41:28.840Z,31.17
2022-08-19T09:43:58.495Z,31.80
2022-08-19T09:46:28.803Z,29.00
2022-08-19T09:48:59.389Z,27.83
2022-08-19T09:51:33.522Z,34.17
2022-08-19T09:54:04.712Z,18.80
2022-08-19T09:56:32.951Z,39.07
2022-08-19T09:59:02.783Z,30.23
2022-08-19T10:01:31.693Z,36.27
2022-08-19T10:04:00.216Z,30.10
2022-08-19T10:06:45.799Z,30.97
2022-08-19T10:09:13.361Z,29.30
2022-08-19T10:11:54.947Z,32.33
2022-08-19T10:14:24.388Z,41.30
2022-08-19T10:16:52.406Z,36.97
2022-08-19T10:19:25.527Z,28.20
2022-08-19T10:21:53.505Z,33.83
2022-08-19T10:24:21.569Z,28.20
2022-08-19T10:26:55.838Z,34.30
2022-08-19T10:29:32.564Z,32.37
2022-08-19T10:32:02.821Z,33.70
2022-08-19T10:34:31.318Z,30.30
2022-08-19T10:37:01.010Z,30.07
2022-08-19T10:39:42.500Z,38.33
2022-08-19T10:42:14.253Z,43.20
2022-08-19T10:44:41.509Z,35.67
2022-08-19T10:47:17.651Z,37.40
2022-08-19T10:50:11.866Z,30.93
2022-08-19T10:52:39.790Z,36.70
2022-08-19T10:55:41.885Z,31.60
2022-08-19T10:58:24.655Z,39.00
2022-08-19T11:00:56.545Z,43.40
2022-08-19T11:03:24.414Z,44.57
2022-08-19T11:06:06.316Z,38.47
2022-08-19T11:08:35.311Z,50.80
2022-08-19T11:11:04.095Z,35.93
2022-08-19T11:13:38.386Z,42.13
2022-08-19T11:16:08.491Z,36.07
2022-08-19T11:18:47.123Z,35.83
2022-08-19T11:21:21.058Z,36.73
2022-08-19T11:23:50.379Z,33.70
2022-08-19T11:26:17.623Z,37.50
2022-08-19T11:28:44.623Z,34.60
2022-08-19T11:31:16.680Z,27.67
2022-08-19T11:33:47.219Z,32.13
2022-08-19T11:36:15.234Z,28.30
2022-08-19T11:38:43.775Z,38.43
2022-08-19T11:41:10.525Z,24.80
2022-08-19T11:43:37.883Z,24.80
2022-08-19T11:46:10.819Z,30.83
2022-08-19T11:48:38.392Z,33.57
2022-08-19T11:51:11.650Z,24.73
2022-08-19T11:53:39.031Z,18.30
2022-08-19T11:56:07.051Z,22.90
2022-08-19T11:58:35.062Z,24.53
2022-08-19T12:01:01.935Z,34.23
2022-08-19T12:03:29.034Z,24.17
2022-08-19T12:05:55.802Z,26.20
2022-08-19T12:08:22.583Z,24.50
2022-08-19T12:10:49.587Z,27.07
2022-08-19T12:13:19.617Z,21.97
2022-08-19T12:15:48.480Z,22.07
2022-08-19T12:18:15.341Z,24.73
2022-08-19T12:20:43.415Z,22.30
2022-08-19T12:23:11.161Z,21.80
2022-08-19T12:25:44.608Z,21.20
2022-08-19T12:28:11.272Z,29.73
2022-08-19T12:30:39.386Z,24.37
2022-08-19T12:33:06.135Z,18.30
2022-08-19T12:35:32.865Z,22.40
2022-08-19T12:38:00.862Z,21.67
2022-08-19T12:40:27.807Z,20.17
2022-08-19T12:42:55.262Z,20.67
2022-08-19T12:45:23.416Z,16.03
2022-08-19T12:47:50.623Z,17.13
2022-08-19T12:50:22.463Z,24.60
2022-08-19T12:52:49.370Z,18.70
2022-08-19T12:55:16.326Z,14.23
2022-08-19T12:57:42.994Z,15.03
2022-08-19T13:00:22.016Z,19.10
2022-08-19T13:02:51.457Z,20.30
2022-08-19T13:05:23.330Z,16.27
2022-08-19T13:07:52.031Z,18.23
2022-08-19T13:10:20.963Z,19.60
2022-08-19T13:12:49.896Z,18.50
2022-08-19T13:15:23.850Z,15.67
2022-08-19T13:17:53.774Z,20.70
2022-08-19T13:20:21.946Z,15.50
2022-08-19T13:22:50.225Z,14.10
2022-08-19T13:25:19.947Z,14.00
2022-08-19T13:27:51.590Z,15.13
2022-08-19T13:30:39.179Z,18.77
2022-08-19T13:33:12.417Z,15.87
2022-08-19T13:35:45.479Z,18.30
2022-08-19T13:38:13.639Z,17.43
2022-08-19T13:40:41.608Z,15.37
2022-08-19T13:43:12.436Z,19.27
2022-08-19T13:45:54.720Z,17.43
2022-08-19T13:48:21.870Z,28.33
2022-08-19T13:50:49.099Z,16.10
2022-08-19T13:53:17.017Z,18.40
2022-08-19T13:55:44.593Z,15.70
2022-08-19T13:58:12.462Z,18.97
2022-08-19T14:00:44.956Z,21.33
2022-08-19T14:03:12.169Z,19.80
2022-08-19T14:05:39.399Z,13.50
2022-08-19T14:08:06.203Z,17.80
2022-08-19T14:10:33.356Z,20.07
2022-08-19T14:13:02.452Z,17.43
2022-08-19T14:15:29.809Z,19.00
2022-08-19T14:17:57.025Z,23.17
2022-08-19T14:20:25.911Z,16.37
2022-08-19T14:22:53.884Z,18.87
2022-08-19T14:25:24.525Z,20.57
2022-08-19T14:27:51.670Z,20.90
2022-08-19T14:30:23.446Z,18.80
2022-08-19T14:32:50.079Z,19.23
2022-08-19T14:35:17.719Z,22.07
2022-08-19T14:37:46.294Z,19.87
2022-08-19T14:40:26.832Z,15.10
2022-08-19T14:43:04.746Z,20.77
2022-08-19T14:45:36.540Z,16.80
2022-08-19T14:48:04.213Z,18.27
2022-08-19T14:50:31.190Z,22.63
2022-08-19T14:53:12.351Z,20.47
2022-08-19T14:55:43.891Z,16.93
2022-08-19T14:58:10.679Z,16.93
2022-08-19T15:00:57.892Z,17.37
2022-08-19T15:03:24.891Z,20.00
2022-08-19T15:05:51.615Z,19.73
2022-08-19T15:08:18.301Z,14.87
2022-08-19T15:10:47.778Z,17.80
2022-08-19T15:13:14.409Z,17.03
2022-08-19T15:15:41.068Z,24.20
2022-08-19T15:18:07.740Z,21.67
2022-08-19T15:20:34.404Z,17.80
2022-08-19T15:23:01.353Z,17.00
2022-08-19T15:25:28.950Z,16.73
2022-08-19T15:27:55.972Z,15.90
2022-08-19T15:30:29.015Z,14.27
2022-08-19T15:32:56.869Z,16.40
2022-08-19T15:35:24.497Z,14.47
2022-08-19T15:37:53.309Z,16.70
2022-08-19T15:40:21.224Z,16.40
2022-08-19T15:42:49.749Z,19.57
2022-08-19T15:45:18.337Z,14.07
2022-08-19T15:47:45.215Z,14.97
2022-08-19T15:50:15.649Z,12.30
2022-08-19T15:52:56.964Z,14.60
2022-08-19T15:55:34.209Z,17.53
2022-08-19T15:58:28.762Z,13.77
2022-08-19T16:01:24.358Z,15.00
2022-08-19T16:04:14.679Z,11.03
2022-08-19T16:06:54.323Z,10.77
2022-08-19T16:09:27.273Z,21.27
2022-08-19T16:11:57.250Z,10.10
2022-08-19T16:14:28.723Z,14.10
2022-08-19T16:16:56.787Z,11.80
2022-08-19T16:19:24.429Z,13.27
2022-08-19T16:21:53.097Z,12.50
2022-08-19T16:24:22.574Z,10.93
2022-08-19T16:26:49.881Z,11.77
2022-08-19T16:29:33.923Z,15.13
2022-08-19T16:32:10.141Z,11.17
2022-08-19T16:34:38.402Z,11.83
2022-08-19T16:37:05.124Z,12.63
2022-08-19T16:39:31.866Z,11.43
2022-08-19T16:41:58.783Z,10.67
2022-08-19T16:44:26.956Z,13.07
2022-08-19T16:46:59.142Z,7.77
2022-08-19T16:49:52.151Z,12.97
2022-08-19T16:52:14.877Z,8.90
2022-08-19T16:54:43.611Z,12.33
2022-08-19T16:57:12.193Z,11.10
2022-08-19T16:59:44.172Z,8.20
2022-08-19T17:02:17.568Z,6.73
2022-08-19T17:04:44.174Z,10.13
2022-08-19T17:07:22.649Z,7.03
2022-08-19T17:09:50.471Z,8.87
2022-08-19T17:12:17.486Z,9.53
2022-08-19T17:14:46.024Z,10.20
2022-08-19T17:17:12.836Z,13.13
2022-08-19T17:19:41.805Z,9.60
2022-08-19T17:22:10.153Z,12.77
2022-08-19T17:24:38.553Z,13.00
2022-08-19T17:27:07.520Z,11.23
2022-08-19T17:29:34.691Z,8.93
2022-08-19T17:32:01.965Z,13.30
2022-08-19T17:34:28.889Z,12.90
2022-08-19T17:36:57.124Z,15.50
2022-08-19T17:39:25.402Z,11.20
2022-08-19T17:41:52.109Z,13.90
2022-08-19T17:44:19.227Z,12.90
2022-08-19T17:46:46.747Z,15.60
2022-08-19T17:49:14.414Z,14.47
2022-08-19T17:51:44.991Z,13.00
2022-08-19T17:54:15.982Z,15.10
2022-08-19T17:56:43.506Z,13.03
2022-08-19T17:59:14.150Z,12.57
2022-08-19T18:01:52.180Z,11.40
2022-08-19T18:04:25.073Z,12.30
2022-08-19T18:06:54.647Z,11.43
2022-08-19T18:09:28.671Z,14.67
2022-08-19T18:12:05.584Z,14.60
2022-08-19T18:14:36.259Z,11.87
2022-08-19T18:17:09.949Z,10.80
2022-08-19T18:19:41.500Z,12.73
2022-08-19T18:22:24.558Z,12.30
2022-08-19T18:24:51.480Z,13.30
2022-08-19T18:27:18.291Z,13.57
2022-08-19T18:29:45.673Z,16.73
2022-08-19T18:32:12.861Z,15.40
2022-08-19T18:34:41.565Z,13.50
2022-08-19T18:37:08.241Z,11.47
2022-08-19T18:39:53.631Z,17.17
2022-08-19T18:42:39.276Z,14.13
2022-08-19T18:45:25.640Z,16.60
2022-08-19T18:48:26.434Z,17.30
2022-08-19T18:50:58.431Z,15.20
2022-08-19T18:53:28.281Z,14.87
2022-08-19T18:55:55.365Z,18.17
2022-08-19T18:58:32.197Z,67.10
2022-08-19T19:01:00.553Z,17.77
2022-08-19T19:03:27.767Z,15.17
2022-08-19T19:05:54.511Z,17.90
2022-08-19T19:08:27.244Z,17.17
2022-08-19T19:10:55.726Z,19.57
2022-08-19T19:13:22.365Z,17.93
2022-08-19T19:15:49.034Z,19.17
2022-08-19T19:18:15.636Z,19.90
2022-08-19T19:20:42.429Z,23.97
2022-08-19T19:23:09.065Z,17.87
2022-08-19T19:25:49.695Z,17.13
2022-08-19T19:28:17.809Z,18.97
2022-08-19T19:30:44.489Z,18.17
2022-08-19T19:33:12.319Z,21.07
2022-08-19T19:35:40.944Z,17.80
2022-08-19T19:38:12.501Z,17.83
2022-08-19T19:40:39.138Z,18.50
2022-08-19T19:43:06.326Z,16.70
2022-08-19T19:45:33.474Z,17.10
2022-08-19T19:48:00.584Z,19.17
2022-08-19T19:50:30.101Z,30.60
2022-08-19T19:52:57.552Z,19.83
2022-08-19T19:55:26.476Z,18.33
2022-08-19T19:57:54.391Z,18.13
2022-08-19T20:00:22.089Z,21.70
2022-08-19T20:02:50.873Z,16.10
2022-08-19T20:05:21.181Z,18.97
2022-08-19T20:08:08.174Z,18.23
2022-08-19T20:10:35.283Z,19.93
2022-08-19T20:13:03.562Z,18.30
2022-08-19T20:15:32.062Z,20.00
2022-08-19T20:17:59.499Z,16.67
2022-08-19T20:20:27.047Z,18.30
2022-08-19T20:22:53.964Z,18.73
2022-08-19T20:25:22.307Z,14.93
2022-08-19T20:27:49.509Z,21.40
2022-08-19T20:30:19.822Z,17.17
2022-08-19T20:32:47.680Z,54.87
2022-08-19T20:35:19.144Z,27.60
2022-08-19T20:37:45.782Z,23.47
2022-08-19T20:40:13.698Z,21.03
2022-08-19T20:42:42.726Z,21.23
2022-08-19T20:45:19.679Z,24.57
2022-08-19T20:47:58.723Z,20.37
2022-08-19T20:50:26.036Z,20.23
2022-08-19T20:52:56.641Z,17.50
2022-08-19T20:55:23.344Z,25.27
2022-08-19T20:57:50.086Z,56.60
2022-08-19T21:00:16.916Z,65.83
2022-08-19T21:02:43.604Z,60.23
2022-08-19T21:05:10.929Z,70.47
2022-08-19T21:07:39.209Z,33.50
2022-08-19T21:10:07.068Z,25.83
2022-08-19T21:12:33.743Z,21.67
2022-08-19T21:15:00.472Z,33.03
2022-08-19T21:17:27.096Z,20.60
2022-08-19T21:19:53.717Z,34.33
2022-08-19T21:22:20.378Z,22.87
2022-08-19T21:24:47.108Z,42.90
2022-08-19T21:27:14.011Z,40.53
2022-08-19T21:29:42.150Z,24.57
2022-08-19T21:32:11.120Z,22.13
2022-08-19T21:34:41.306Z,20.50
2022-08-19T21:37:11.639Z,22.33
2022-08-19T21:39:44.310Z,21.00
2022-08-19T21:42:12.616Z,22.30
2022-08-19T21:44:40.098Z,19.37
2022-08-19T21:47:12.642Z,18.60
2022-08-19T21:49:39.533Z,24.67
2022-08-19T21:52:06.839Z,22.30
2022-08-19T21:54:38.168Z,21.50
2022-08-19T21:57:09.991Z,20.87
2022-08-19T21:59:39.684Z,24.67
2022-08-19T22:02:20.126Z,28.70
2022-08-19T22:04:48.165Z,21.73
2022-08-19T22:07:15.067Z,39.80
2022-08-19T22:09:42.670Z,27.03
2022-08-19T22:12:21.032Z,23.83
2022-08-19T22:14:47.724Z,26.23
2022-08-19T22:17:14.695Z,23.57
2022-08-19T22:19:41.348Z,102.23
2022-08-19T22:22:08.277Z,56.67
2022-08-19T22:24:35.694Z,24.17
2022-08-19T22:27:05.803Z,22.17
2022-08-19T22:29:36.596Z,26.33
2022-08-19T22:32:22.986Z,24.53
2022-08-19T22:34:51.751Z,21.07
2022-08-19T22:37:18.456Z,21.37
2022-08-19T22:39:45.533Z,26.63
2022-08-19T22:42:12.766Z,21.20
2022-08-19T22:44:39.617Z,22.13
2022-08-19T22:47:06.328Z,77.97
2022-08-19T22:49:33.125Z,99.00
2022-08-19T22:52:17.367Z,66.07
2022-08-19T22:54:59.148Z,24.67
2022-08-19T22:57:27.271Z,38.63
2022-08-19T22:59:55.039Z,24.70
2022-08-19T23:02:29.605Z,26.80
2022-08-19T23:04:56.385Z,21.40
2022-08-19T23:07:23.942Z,20.93
2022-08-19T23:09:51.041Z,23.77
2022-08-19T23:12:30.592Z,18.40
2022-08-19T23:15:02.725Z,17.87
2022-08-19T23:17:29.362Z,23.23
2022-08-19T23:19:56.114Z,19.30
2022-08-19T23:22:24.930Z,18.00
2022-08-19T23:24:55.847Z,18.20
2022-08-19T23:27:41.630Z,16.13
2022-08-19T23:30:27.320Z,20.00
2022-08-19T23:33:01.673Z,20.27
2022-08-19T23:35:34.207Z,21.33
2022-08-19T23:38:01.225Z,16.33
2022-08-19T23:40:28.934Z,16.37
2022-08-19T23:42:55.861Z,13.97
2022-08-19T23:45:25.445Z,11.40
2022-08-19T23:47:53.535Z,15.63
2022-08-19T23:50:21.509Z,18.67
2022-08-19T23:52:54.436Z,16.90
2022-08-19T23:55:24.987Z,11.20
2022-08-19T23:57:52.031Z,8.40
